sensor_id;sensor_type;location;lat;lon;timestamp;P1;durP1;ratioP1;P2;durP2;ratioP2
58338;SDS011;68636;52.704;6.536;2024-03-02T00:01:14;8.35;;;1.60;;
58338;SDS011;68636;52.704;6.536;2024-03-02T00:03:41;4.65;;;1.75;;
58338;SDS011;68636;52.704;6.536;2024-03-02T00:06:08;3.25;;;1.30;;
58338;SDS011;68636;52.704;6.536;2024-03-02T00:08:35;5.18;;;1.52;;
58338;SDS011;68636;52.704;6.536;2024-03-02T00:11:01;2.95;;;1.25;;
58338;SDS011;68636;52.704;6.536;2024-03-02T00:13:28;5.00;;;1.38;;
58338;SDS011;68636;52.704;6.536;2024-03-02T00:15:56;2.78;;;1.02;;
58338;SDS011;68636;52.704;6.536;2024-03-02T00:18:27;3.03;;;1.02;;
58338;SDS011;68636;52.704;6.536;2024-03-02T00:20:56;3.22;;;1.38;;
58338;SDS011;68636;52.704;6.536;2024-03-02T00:23:23;3.08;;;1.08;;
58338;SDS011;68636;52.704;6.536;2024-03-02T00:25:53;3.28;;;1.30;;
58338;SDS011;68636;52.704;6.536;2024-03-02T00:28:20;3.75;;;1.42;;
58338;SDS011;68636;52.704;6.536;2024-03-02T00:33:46;3.60;;;1.60;;
58338;SDS011;68636;52.704;6.536;2024-03-02T00:36:13;4.05;;;1.40;;
58338;SDS011;68636;52.704;6.536;2024-03-02T00:38:47;2.17;;;0.80;;
58338;SDS011;68636;52.704;6.536;2024-03-02T00:41:19;4.30;;;1.25;;
58338;SDS011;68636;52.704;6.536;2024-03-02T00:43:50;2.88;;;1.08;;
58338;SDS011;68636;52.704;6.536;2024-03-02T00:46:19;2.95;;;1.05;;
58338;SDS011;68636;52.704;6.536;2024-03-02T00:49:31;3.03;;;1.30;;
58338;SDS011;68636;52.704;6.536;2024-03-02T00:51:33;7.55;;;1.55;;
58338;SDS011;68636;52.704;6.536;2024-03-02T00:54:04;3.53;;;1.40;;
58338;SDS011;68636;52.704;6.536;2024-03-02T00:56:31;2.85;;;1.20;;
58338;SDS011;68636;52.704;6.536;2024-03-02T00:58:58;4.72;;;1.60;;
58338;SDS011;68636;52.704;6.536;2024-03-02T01:01:24;3.30;;;1.20;;
58338;SDS011;68636;52.704;6.536;2024-03-02T01:03:51;6.20;;;1.48;;
58338;SDS011;68636;52.704;6.536;2024-03-02T01:06:17;3.35;;;1.10;;
58338;SDS011;68636;52.704;6.536;2024-03-02T01:08:43;3.37;;;1.33;;
58338;SDS011;68636;52.704;6.536;2024-03-02T01:11:09;3.83;;;1.40;;
58338;SDS011;68636;52.704;6.536;2024-03-02T01:13:35;4.05;;;1.60;;
58338;SDS011;68636;52.704;6.536;2024-03-02T01:16:01;3.05;;;1.13;;
58338;SDS011;68636;52.704;6.536;2024-03-02T01:18:29;4.43;;;1.55;;
58338;SDS011;68636;52.704;6.536;2024-03-02T01:20:56;3.50;;;1.13;;
58338;SDS011;68636;52.704;6.536;2024-03-02T01:23:22;4.38;;;1.20;;
58338;SDS011;68636;52.704;6.536;2024-03-02T01:25:48;3.80;;;1.40;;
58338;SDS011;68636;52.704;6.536;2024-03-02T01:28:14;3.30;;;1.30;;
58338;SDS011;68636;52.704;6.536;2024-03-02T01:30:41;5.60;;;2.08;;
58338;SDS011;68636;52.704;6.536;2024-03-02T01:33:07;3.78;;;1.38;;
58338;SDS011;68636;52.704;6.536;2024-03-02T01:35:33;4.20;;;0.98;;
58338;SDS011;68636;52.704;6.536;2024-03-02T01:38:00;4.03;;;1.20;;
58338;SDS011;68636;52.704;6.536;2024-03-02T01:40:26;3.65;;;1.05;;
58338;SDS011;68636;52.704;6.536;2024-03-02T01:42:53;3.40;;;1.15;;
58338;SDS011;68636;52.704;6.536;2024-03-02T01:45:20;3.38;;;1.58;;
58338;SDS011;68636;52.704;6.536;2024-03-02T01:47:46;3.78;;;1.25;;
58338;SDS011;68636;52.704;6.536;2024-03-02T01:50:13;9.05;;;1.55;;
58338;SDS011;68636;52.704;6.536;2024-03-02T01:52:39;2.60;;;1.10;;
58338;SDS011;68636;52.704;6.536;2024-03-02T01:55:06;4.40;;;1.20;;
58338;SDS011;68636;52.704;6.536;2024-03-02T01:57:32;2.88;;;0.95;;
58338;SDS011;68636;52.704;6.536;2024-03-02T01:59:58;3.33;;;0.90;;
58338;SDS011;68636;52.704;6.536;2024-03-02T02:02:25;3.55;;;1.45;;
58338;SDS011;68636;52.704;6.536;2024-03-02T02:04:51;2.92;;;1.08;;
58338;SDS011;68636;52.704;6.536;2024-03-02T02:07:17;3.37;;;1.10;;
58338;SDS011;68636;52.704;6.536;2024-03-02T02:09:44;2.85;;;1.00;;
58338;SDS011;68636;52.704;6.536;2024-03-02T02:12:10;2.95;;;1.00;;
58338;SDS011;68636;52.704;6.536;2024-03-02T02:14:36;2.58;;;1.08;;
58338;SDS011;68636;52.704;6.536;2024-03-02T02:17:05;5.32;;;1.20;;
58338;SDS011;68636;52.704;6.536;2024-03-02T02:19:31;2.70;;;0.93;;
58338;SDS011;68636;52.704;6.536;2024-03-02T02:21:57;5.20;;;1.30;;
58338;SDS011;68636;52.704;6.536;2024-03-02T02:24:23;3.28;;;1.33;;
58338;SDS011;68636;52.704;6.536;2024-03-02T02:26:49;2.20;;;0.75;;
58338;SDS011;68636;52.704;6.536;2024-03-02T02:29:15;3.53;;;1.10;;
58338;SDS011;68636;52.704;6.536;2024-03-02T02:31:41;3.53;;;1.20;;
58338;SDS011;68636;52.704;6.536;2024-03-02T02:34:07;6.10;;;1.45;;
58338;SDS011;68636;52.704;6.536;2024-03-02T02:36:34;3.30;;;0.95;;
58338;SDS011;68636;52.704;6.536;2024-03-02T02:39:03;5.20;;;1.20;;
58338;SDS011;68636;52.704;6.536;2024-03-02T02:41:30;3.95;;;1.17;;
58338;SDS011;68636;52.704;6.536;2024-03-02T02:43:56;3.63;;;1.37;;
58338;SDS011;68636;52.704;6.536;2024-03-02T02:46:22;5.60;;;1.45;;
58338;SDS011;68636;52.704;6.536;2024-03-02T02:48:48;3.10;;;1.13;;
58338;SDS011;68636;52.704;6.536;2024-03-02T02:51:18;4.20;;;1.10;;
58338;SDS011;68636;52.704;6.536;2024-03-02T02:53:44;3.90;;;1.30;;
58338;SDS011;68636;52.704;6.536;2024-03-02T02:56:10;4.60;;;1.50;;
58338;SDS011;68636;52.704;6.536;2024-03-02T02:58:36;4.00;;;1.60;;
58338;SDS011;68636;52.704;6.536;2024-03-02T03:01:02;5.75;;;1.67;;
58338;SDS011;68636;52.704;6.536;2024-03-02T03:03:29;4.72;;;1.50;;
58338;SDS011;68636;52.704;6.536;2024-03-02T03:05:55;4.97;;;1.80;;
58338;SDS011;68636;52.704;6.536;2024-03-02T03:08:21;5.10;;;1.50;;
58338;SDS011;68636;52.704;6.536;2024-03-02T03:13:14;6.37;;;1.50;;
58338;SDS011;68636;52.704;6.536;2024-03-02T03:15:40;4.45;;;1.63;;
58338;SDS011;68636;52.704;6.536;2024-03-02T03:18:06;3.45;;;1.30;;
58338;SDS011;68636;52.704;6.536;2024-03-02T03:20:32;3.17;;;1.00;;
58338;SDS011;68636;52.704;6.536;2024-03-02T03:22:59;4.07;;;1.05;;
58338;SDS011;68636;52.704;6.536;2024-03-02T03:25:25;3.30;;;0.75;;
58338;SDS011;68636;52.704;6.536;2024-03-02T03:27:51;4.22;;;1.42;;
58338;SDS011;68636;52.704;6.536;2024-03-02T03:30:17;4.95;;;1.27;;
58338;SDS011;68636;52.704;6.536;2024-03-02T03:32:44;2.80;;;1.07;;
58338;SDS011;68636;52.704;6.536;2024-03-02T03:35:10;4.93;;;1.45;;
58338;SDS011;68636;52.704;6.536;2024-03-02T03:37:38;4.43;;;1.60;;
58338;SDS011;68636;52.704;6.536;2024-03-02T03:40:04;4.32;;;1.40;;
58338;SDS011;68636;52.704;6.536;2024-03-02T03:42:35;5.68;;;1.33;;
58338;SDS011;68636;52.704;6.536;2024-03-02T03:45:01;5.15;;;1.45;;
58338;SDS011;68636;52.704;6.536;2024-03-02T03:47:28;5.30;;;1.60;;
58338;SDS011;68636;52.704;6.536;2024-03-02T03:49:54;4.10;;;1.50;;
58338;SDS011;68636;52.704;6.536;2024-03-02T03:52:20;3.03;;;1.38;;
58338;SDS011;68636;52.704;6.536;2024-03-02T03:54:46;4.20;;;1.33;;
58338;SDS011;68636;52.704;6.536;2024-03-02T03:57:12;4.15;;;1.40;;
58338;SDS011;68636;52.704;6.536;2024-03-02T03:59:38;7.18;;;1.38;;
58338;SDS011;68636;52.704;6.536;2024-03-02T04:02:04;4.35;;;1.50;;
58338;SDS011;68636;52.704;6.536;2024-03-02T04:04:30;4.72;;;1.42;;
58338;SDS011;68636;52.704;6.536;2024-03-02T04:06:56;3.47;;;1.40;;
58338;SDS011;68636;52.704;6.536;2024-03-02T04:09:23;3.78;;;1.45;;
58338;SDS011;68636;52.704;6.536;2024-03-02T04:11:49;5.28;;;1.60;;
58338;SDS011;68636;52.704;6.536;2024-03-02T04:14:15;5.07;;;1.88;;
58338;SDS011;68636;52.704;6.536;2024-03-02T04:16:41;3.70;;;1.48;;
58338;SDS011;68636;52.704;6.536;2024-03-02T04:19:07;4.43;;;1.50;;
58338;SDS011;68636;52.704;6.536;2024-03-02T04:21:33;6.43;;;1.42;;
58338;SDS011;68636;52.704;6.536;2024-03-02T04:23:59;4.07;;;1.58;;
58338;SDS011;68636;52.704;6.536;2024-03-02T04:26:26;3.53;;;1.38;;
58338;SDS011;68636;52.704;6.536;2024-03-02T04:28:52;4.38;;;1.83;;
58338;SDS011;68636;52.704;6.536;2024-03-02T04:31:19;4.82;;;1.52;;
58338;SDS011;68636;52.704;6.536;2024-03-02T04:33:45;4.72;;;1.70;;
58338;SDS011;68636;52.704;6.536;2024-03-02T04:36:11;3.47;;;1.20;;
58338;SDS011;68636;52.704;6.536;2024-03-02T04:38:38;6.00;;;1.80;;
58338;SDS011;68636;52.704;6.536;2024-03-02T04:41:04;3.78;;;1.27;;
58338;SDS011;68636;52.704;6.536;2024-03-02T04:43:31;4.72;;;1.45;;
58338;SDS011;68636;52.704;6.536;2024-03-02T04:46:00;5.13;;;1.38;;
58338;SDS011;68636;52.704;6.536;2024-03-02T04:48:27;3.13;;;1.25;;
58338;SDS011;68636;52.704;6.536;2024-03-02T04:50:53;4.30;;;1.60;;
58338;SDS011;68636;52.704;6.536;2024-03-02T04:53:19;4.47;;;1.45;;
58338;SDS011;68636;52.704;6.536;2024-03-02T04:55:45;3.47;;;1.38;;
58338;SDS011;68636;52.704;6.536;2024-03-02T04:58:31;4.43;;;1.08;;
58338;SDS011;68636;52.704;6.536;2024-03-02T05:00:57;7.95;;;1.40;;
58338;SDS011;68636;52.704;6.536;2024-03-02T05:03:23;3.78;;;1.10;;
58338;SDS011;68636;52.704;6.536;2024-03-02T05:05:49;5.20;;;1.40;;
58338;SDS011;68636;52.704;6.536;2024-03-02T05:08:15;3.83;;;1.60;;
58338;SDS011;68636;52.704;6.536;2024-03-02T05:10:42;4.35;;;1.42;;
58338;SDS011;68636;52.704;6.536;2024-03-02T05:13:08;4.50;;;1.50;;
58338;SDS011;68636;52.704;6.536;2024-03-02T05:15:34;4.47;;;1.65;;
58338;SDS011;68636;52.704;6.536;2024-03-02T05:18:00;3.55;;;1.30;;
58338;SDS011;68636;52.704;6.536;2024-03-02T05:20:30;5.25;;;1.25;;
58338;SDS011;68636;52.704;6.536;2024-03-02T05:22:56;4.07;;;1.30;;
58338;SDS011;68636;52.704;6.536;2024-03-02T05:25:22;3.40;;;1.38;;
58338;SDS011;68636;52.704;6.536;2024-03-02T05:27:49;3.40;;;1.42;;
58338;SDS011;68636;52.704;6.536;2024-03-02T05:30:15;4.10;;;1.40;;
58338;SDS011;68636;52.704;6.536;2024-03-02T05:32:41;5.57;;;1.40;;
58338;SDS011;68636;52.704;6.536;2024-03-02T05:35:07;6.30;;;1.63;;
58338;SDS011;68636;52.704;6.536;2024-03-02T05:37:35;2.30;;;1.00;;
58338;SDS011;68636;52.704;6.536;2024-03-02T05:40:01;3.95;;;1.17;;
58338;SDS011;68636;52.704;6.536;2024-03-02T05:42:28;4.97;;;1.00;;
58338;SDS011;68636;52.704;6.536;2024-03-02T05:44:54;2.47;;;1.10;;
58338;SDS011;68636;52.704;6.536;2024-03-02T05:47:20;2.92;;;0.85;;
58338;SDS011;68636;52.704;6.536;2024-03-02T05:49:46;3.72;;;0.70;;
58338;SDS011;68636;52.704;6.536;2024-03-02T05:52:12;2.20;;;0.80;;
58338;SDS011;68636;52.704;6.536;2024-03-02T05:54:38;4.00;;;1.15;;
58338;SDS011;68636;52.704;6.536;2024-03-02T05:57:04;3.70;;;0.50;;
58338;SDS011;68636;52.704;6.536;2024-03-02T05:59:57;2.67;;;0.65;;
58338;SDS011;68636;52.704;6.536;2024-03-02T06:02:23;1.90;;;0.60;;
58338;SDS011;68636;52.704;6.536;2024-03-02T06:04:49;1.92;;;0.50;;
58338;SDS011;68636;52.704;6.536;2024-03-02T06:07:15;2.25;;;0.50;;
58338;SDS011;68636;52.704;6.536;2024-03-02T06:09:45;1.98;;;0.43;;
58338;SDS011;68636;52.704;6.536;2024-03-02T06:12:13;0.88;;;0.30;;
58338;SDS011;68636;52.704;6.536;2024-03-02T06:14:39;0.53;;;0.20;;
58338;SDS011;68636;52.704;6.536;2024-03-02T06:17:05;3.38;;;0.10;;
58338;SDS011;68636;52.704;6.536;2024-03-02T06:19:32;0.38;;;0.10;;
58338;SDS011;68636;52.704;6.536;2024-03-02T06:21:58;0.60;;;0.10;;
58338;SDS011;68636;52.704;6.536;2024-03-02T06:24:24;0.60;;;0.10;;
58338;SDS011;68636;52.704;6.536;2024-03-02T06:26:53;0.63;;;0.10;;
58338;SDS011;68636;52.704;6.536;2024-03-02T06:29:19;0.30;;;0.10;;
58338;SDS011;68636;52.704;6.536;2024-03-02T06:31:45;0.70;;;0.10;;
58338;SDS011;68636;52.704;6.536;2024-03-02T06:34:11;0.68;;;0.10;;
58338;SDS011;68636;52.704;6.536;2024-03-02T06:36:38;0.98;;;0.20;;
58338;SDS011;68636;52.704;6.536;2024-03-02T06:39:05;1.05;;;0.15;;
58338;SDS011;68636;52.704;6.536;2024-03-02T06:41:35;0.88;;;0.25;;
58338;SDS011;68636;52.704;6.536;2024-03-02T06:44:02;0.28;;;0.10;;
58338;SDS011;68636;52.704;6.536;2024-03-02T06:46:28;0.70;;;0.10;;
58338;SDS011;68636;52.704;6.536;2024-03-02T06:48:54;1.73;;;0.20;;
58338;SDS011;68636;52.704;6.536;2024-03-02T06:51:21;1.10;;;0.10;;
58338;SDS011;68636;52.704;6.536;2024-03-02T06:53:50;0.65;;;0.17;;
58338;SDS011;68636;52.704;6.536;2024-03-02T06:56:16;0.47;;;0.10;;
58338;SDS011;68636;52.704;6.536;2024-03-02T06:58:42;0.35;;;0.10;;
58338;SDS011;68636;52.704;6.536;2024-03-02T07:01:08;1.00;;;0.20;;
58338;SDS011;68636;52.704;6.536;2024-03-02T07:03:35;0.70;;;0.20;;
58338;SDS011;68636;52.704;6.536;2024-03-02T07:06:01;0.63;;;0.10;;
58338;SDS011;68636;52.704;6.536;2024-03-02T07:08:28;2.33;;;0.10;;
58338;SDS011;68636;52.704;6.536;2024-03-02T07:10:54;1.83;;;0.15;;
58338;SDS011;68636;52.704;6.536;2024-03-02T07:13:20;0.40;;;0.10;;
58338;SDS011;68636;52.704;6.536;2024-03-02T07:15:46;0.50;;;0.10;;
58338;SDS011;68636;52.704;6.536;2024-03-02T07:18:12;0.70;;;0.10;;
58338;SDS011;68636;52.704;6.536;2024-03-02T07:20:40;0.65;;;0.20;;
58338;SDS011;68636;52.704;6.536;2024-03-02T07:23:06;0.60;;;0.10;;
58338;SDS011;68636;52.704;6.536;2024-03-02T07:25:33;0.28;;;0.10;;
58338;SDS011;68636;52.704;6.536;2024-03-02T07:27:59;0.82;;;0.20;;
58338;SDS011;68636;52.704;6.536;2024-03-02T07:30:28;0.88;;;0.10;;
58338;SDS011;68636;52.704;6.536;2024-03-02T07:32:54;0.55;;;0.20;;
58338;SDS011;68636;52.704;6.536;2024-03-02T07:35:20;0.32;;;0.10;;
58338;SDS011;68636;52.704;6.536;2024-03-02T07:37:47;0.65;;;0.20;;
58338;SDS011;68636;52.704;6.536;2024-03-02T07:40:13;0.68;;;0.10;;
58338;SDS011;68636;52.704;6.536;2024-03-02T07:42:40;0.63;;;0.20;;
58338;SDS011;68636;52.704;6.536;2024-03-02T07:45:06;2.03;;;0.20;;
58338;SDS011;68636;52.704;6.536;2024-03-02T07:47:33;1.30;;;0.20;;
58338;SDS011;68636;52.704;6.536;2024-03-02T07:50:00;0.98;;;0.20;;
58338;SDS011;68636;52.704;6.536;2024-03-02T07:52:26;0.40;;;0.10;;
58338;SDS011;68636;52.704;6.536;2024-03-02T07:54:52;1.15;;;0.20;;
58338;SDS011;68636;52.704;6.536;2024-03-02T07:57:19;0.95;;;0.20;;
58338;SDS011;68636;52.704;6.536;2024-03-02T07:59:45;1.58;;;0.20;;
58338;SDS011;68636;52.704;6.536;2024-03-02T08:02:12;2.40;;;0.30;;
58338;SDS011;68636;52.704;6.536;2024-03-02T08:04:38;0.68;;;0.20;;
58338;SDS011;68636;52.704;6.536;2024-03-02T08:07:04;1.42;;;0.25;;
58338;SDS011;68636;52.704;6.536;2024-03-02T08:09:31;2.00;;;0.28;;
58338;SDS011;68636;52.704;6.536;2024-03-02T08:11:57;1.23;;;0.20;;
58338;SDS011;68636;52.704;6.536;2024-03-02T08:14:23;2.13;;;0.40;;
58338;SDS011;68636;52.704;6.536;2024-03-02T08:16:49;1.95;;;0.30;;
58338;SDS011;68636;52.704;6.536;2024-03-02T08:19:15;1.83;;;0.30;;
58338;SDS011;68636;52.704;6.536;2024-03-02T08:21:42;1.27;;;0.25;;
58338;SDS011;68636;52.704;6.536;2024-03-02T08:24:08;2.65;;;0.30;;
58338;SDS011;68636;52.704;6.536;2024-03-02T08:26:35;1.20;;;0.40;;
58338;SDS011;68636;52.704;6.536;2024-03-02T08:29:01;5.05;;;0.20;;
58338;SDS011;68636;52.704;6.536;2024-03-02T08:31:28;1.02;;;0.10;;
58338;SDS011;68636;52.704;6.536;2024-03-02T08:33:54;1.47;;;0.10;;
58338;SDS011;68636;52.704;6.536;2024-03-02T08:36:22;0.95;;;0.20;;
58338;SDS011;68636;52.704;6.536;2024-03-02T08:38:51;1.35;;;0.30;;
58338;SDS011;68636;52.704;6.536;2024-03-02T08:41:17;2.20;;;0.17;;
58338;SDS011;68636;52.704;6.536;2024-03-02T08:43:43;1.90;;;0.10;;
58338;SDS011;68636;52.704;6.536;2024-03-02T08:46:10;1.73;;;0.20;;
58338;SDS011;68636;52.704;6.536;2024-03-02T08:48:36;2.25;;;0.32;;
58338;SDS011;68636;52.704;6.536;2024-03-02T08:51:02;1.23;;;0.20;;
58338;SDS011;68636;52.704;6.536;2024-03-02T08:53:31;3.40;;;0.20;;
58338;SDS011;68636;52.704;6.536;2024-03-02T08:55:57;0.90;;;0.20;;
58338;SDS011;68636;52.704;6.536;2024-03-02T08:58:23;2.58;;;0.20;;
58338;SDS011;68636;52.704;6.536;2024-03-02T09:00:49;1.58;;;0.30;;
58338;SDS011;68636;52.704;6.536;2024-03-02T09:03:15;1.20;;;0.13;;
58338;SDS011;68636;52.704;6.536;2024-03-02T09:05:41;1.92;;;0.30;;
58338;SDS011;68636;52.704;6.536;2024-03-02T09:08:08;1.35;;;0.28;;
58338;SDS011;68636;52.704;6.536;2024-03-02T09:10:34;2.13;;;0.40;;
58338;SDS011;68636;52.704;6.536;2024-03-02T09:13:00;0.88;;;0.20;;
58338;SDS011;68636;52.704;6.536;2024-03-02T09:15:26;2.13;;;0.38;;
58338;SDS011;68636;52.704;6.536;2024-03-02T09:17:53;1.23;;;0.30;;
58338;SDS011;68636;52.704;6.536;2024-03-02T09:20:19;1.20;;;0.20;;
58338;SDS011;68636;52.704;6.536;2024-03-02T09:22:45;2.65;;;0.30;;
58338;SDS011;68636;52.704;6.536;2024-03-02T09:25:12;1.42;;;0.30;;
58338;SDS011;68636;52.704;6.536;2024-03-02T09:27:38;0.60;;;0.20;;
58338;SDS011;68636;52.704;6.536;2024-03-02T09:30:05;3.65;;;0.50;;
58338;SDS011;68636;52.704;6.536;2024-03-02T09:32:33;2.55;;;0.60;;
58338;SDS011;68636;52.704;6.536;2024-03-02T09:34:59;1.08;;;0.30;;
58338;SDS011;68636;52.704;6.536;2024-03-02T09:37:25;2.33;;;0.20;;
58338;SDS011;68636;52.704;6.536;2024-03-02T09:39:52;1.70;;;0.40;;
58338;SDS011;68636;52.704;6.536;2024-03-02T09:42:18;2.22;;;0.60;;
58338;SDS011;68636;52.704;6.536;2024-03-02T09:44:46;2.45;;;0.30;;
58338;SDS011;68636;52.704;6.536;2024-03-02T09:47:13;5.50;;;0.50;;
58338;SDS011;68636;52.704;6.536;2024-03-02T09:49:39;2.60;;;0.30;;
58338;SDS011;68636;52.704;6.536;2024-03-02T09:52:05;2.22;;;0.30;;
58338;SDS011;68636;52.704;6.536;2024-03-02T09:54:32;1.83;;;0.30;;
58338;SDS011;68636;52.704;6.536;2024-03-02T09:56:59;6.10;;;1.00;;
58338;SDS011;68636;52.704;6.536;2024-03-02T09:59:26;2.60;;;0.68;;
58338;SDS011;68636;52.704;6.536;2024-03-02T10:02:01;4.40;;;0.80;;
58338;SDS011;68636;52.704;6.536;2024-03-02T10:04:27;1.20;;;0.25;;
58338;SDS011;68636;52.704;6.536;2024-03-02T10:07:10;3.10;;;0.70;;
58338;SDS011;68636;52.704;6.536;2024-03-02T10:09:37;5.22;;;1.35;;
58338;SDS011;68636;52.704;6.536;2024-03-02T10:12:03;2.30;;;0.50;;
58338;SDS011;68636;52.704;6.536;2024-03-02T10:14:30;1.33;;;0.20;;
58338;SDS011;68636;52.704;6.536;2024-03-02T10:17:01;1.70;;;0.40;;
58338;SDS011;68636;52.704;6.536;2024-03-02T10:19:27;1.35;;;0.35;;
58338;SDS011;68636;52.704;6.536;2024-03-02T10:21:58;4.55;;;0.20;;
58338;SDS011;68636;52.704;6.536;2024-03-02T10:24:25;0.50;;;0.15;;
58338;SDS011;68636;52.704;6.536;2024-03-02T10:26:52;3.27;;;0.30;;
58338;SDS011;68636;52.704;6.536;2024-03-02T10:31:45;1.77;;;0.20;;
58338;SDS011;68636;52.704;6.536;2024-03-02T10:34:12;2.42;;;0.30;;
58338;SDS011;68636;52.704;6.536;2024-03-02T10:36:40;1.02;;;0.20;;
58338;SDS011;68636;52.704;6.536;2024-03-02T10:39:07;2.55;;;0.20;;
58338;SDS011;68636;52.704;6.536;2024-03-02T10:41:37;0.63;;;0.10;;
58338;SDS011;68636;52.704;6.536;2024-03-02T10:44:04;1.52;;;0.20;;
58338;SDS011;68636;52.704;6.536;2024-03-02T10:46:32;0.90;;;0.10;;
58338;SDS011;68636;52.704;6.536;2024-03-02T10:48:59;1.65;;;0.20;;
58338;SDS011;68636;52.704;6.536;2024-03-02T10:51:26;1.15;;;0.20;;
58338;SDS011;68636;52.704;6.536;2024-03-02T10:53:53;2.63;;;0.20;;
58338;SDS011;68636;52.704;6.536;2024-03-02T10:56:30;1.75;;;0.30;;
58338;SDS011;68636;52.704;6.536;2024-03-02T10:59:43;1.60;;;0.20;;
58338;SDS011;68636;52.704;6.536;2024-03-02T11:01:43;3.83;;;0.30;;
58338;SDS011;68636;52.704;6.536;2024-03-02T11:04:12;0.70;;;0.13;;
58338;SDS011;68636;52.704;6.536;2024-03-02T11:06:42;2.53;;;0.30;;
58338;SDS011;68636;52.704;6.536;2024-03-02T11:09:09;3.53;;;0.30;;
58338;SDS011;68636;52.704;6.536;2024-03-02T11:11:40;2.70;;;0.40;;
58338;SDS011;68636;52.704;6.536;2024-03-02T11:14:07;5.28;;;0.47;;
58338;SDS011;68636;52.704;6.536;2024-03-02T11:16:36;2.47;;;0.60;;
58338;SDS011;68636;52.704;6.536;2024-03-02T11:19:10;1.05;;;0.28;;
58338;SDS011;68636;52.704;6.536;2024-03-02T11:21:37;1.52;;;0.20;;
58338;SDS011;68636;52.704;6.536;2024-03-02T11:26:51;2.70;;;0.28;;
58338;SDS011;68636;52.704;6.536;2024-03-02T11:32:06;2.30;;;0.35;;
58338;SDS011;68636;52.704;6.536;2024-03-02T11:34:41;0.70;;;0.25;;
58338;SDS011;68636;52.704;6.536;2024-03-02T11:37:10;1.10;;;0.30;;
58338;SDS011;68636;52.704;6.536;2024-03-02T11:39:37;3.90;;;0.50;;
58338;SDS011;68636;52.704;6.536;2024-03-02T11:42:07;3.83;;;0.40;;
58338;SDS011;68636;52.704;6.536;2024-03-02T11:44:36;2.08;;;0.40;;
58338;SDS011;68636;52.704;6.536;2024-03-02T11:47:06;2.85;;;0.40;;
58338;SDS011;68636;52.704;6.536;2024-03-02T11:49:39;3.35;;;0.50;;
58338;SDS011;68636;52.704;6.536;2024-03-02T11:52:06;3.08;;;0.47;;
58338;SDS011;68636;52.704;6.536;2024-03-02T11:54:33;2.03;;;0.38;;
58338;SDS011;68636;52.704;6.536;2024-03-02T11:57:01;2.95;;;0.70;;
58338;SDS011;68636;52.704;6.536;2024-03-02T11:59:28;4.45;;;0.57;;
58338;SDS011;68636;52.704;6.536;2024-03-02T12:01:55;2.67;;;0.52;;
58338;SDS011;68636;52.704;6.536;2024-03-02T12:04:21;2.92;;;0.60;;
58338;SDS011;68636;52.704;6.536;2024-03-02T12:06:48;2.08;;;0.68;;
58338;SDS011;68636;52.704;6.536;2024-03-02T12:09:15;2.25;;;0.68;;
58338;SDS011;68636;52.704;6.536;2024-03-02T12:11:41;2.30;;;0.73;;
58338;SDS011;68636;52.704;6.536;2024-03-02T12:14:11;2.08;;;0.70;;
58338;SDS011;68636;52.704;6.536;2024-03-02T12:16:46;2.65;;;0.70;;
58338;SDS011;68636;52.704;6.536;2024-03-02T12:19:12;4.55;;;1.02;;
58338;SDS011;68636;52.704;6.536;2024-03-02T12:21:40;2.70;;;0.73;;
58338;SDS011;68636;52.704;6.536;2024-03-02T12:24:07;4.20;;;0.60;;
58338;SDS011;68636;52.704;6.536;2024-03-02T12:26:33;1.90;;;0.52;;
58338;SDS011;68636;52.704;6.536;2024-03-02T12:28:59;4.43;;;0.80;;
58338;SDS011;68636;52.704;6.536;2024-03-02T12:31:25;1.77;;;0.55;;
58338;SDS011;68636;52.704;6.536;2024-03-02T12:33:51;2.30;;;0.50;;
58338;SDS011;68636;52.704;6.536;2024-03-02T12:36:17;3.63;;;0.60;;
58338;SDS011;68636;52.704;6.536;2024-03-02T12:38:44;2.17;;;0.50;;
58338;SDS011;68636;52.704;6.536;2024-03-02T12:41:14;3.90;;;0.60;;
58338;SDS011;68636;52.704;6.536;2024-03-02T12:43:40;3.40;;;0.50;;
58338;SDS011;68636;52.704;6.536;2024-03-02T12:46:06;2.27;;;0.50;;
58338;SDS011;68636;52.704;6.536;2024-03-02T12:48:34;3.30;;;0.70;;
58338;SDS011;68636;52.704;6.536;2024-03-02T12:51:01;4.70;;;0.80;;
58338;SDS011;68636;52.704;6.536;2024-03-02T12:53:27;2.92;;;0.82;;
58338;SDS011;68636;52.704;6.536;2024-03-02T12:55:55;3.50;;;0.65;;
58338;SDS011;68636;52.704;6.536;2024-03-02T12:58:21;6.47;;;0.90;;
58338;SDS011;68636;52.704;6.536;2024-03-02T13:00:48;2.33;;;0.70;;
58338;SDS011;68636;52.704;6.536;2024-03-02T13:03:14;2.17;;;0.80;;
58338;SDS011;68636;52.704;6.536;2024-03-02T13:05:47;3.53;;;1.00;;
58338;SDS011;68636;52.704;6.536;2024-03-02T13:08:14;3.50;;;0.95;;
58338;SDS011;68636;52.704;6.536;2024-03-02T13:10:40;2.92;;;0.90;;
58338;SDS011;68636;52.704;6.536;2024-03-02T13:13:08;2.70;;;0.80;;
58338;SDS011;68636;52.704;6.536;2024-03-02T13:15:34;5.63;;;1.30;;
58338;SDS011;68636;52.704;6.536;2024-03-02T13:18:00;3.67;;;1.30;;
58338;SDS011;68636;52.704;6.536;2024-03-02T13:20:30;4.15;;;1.42;;
58338;SDS011;68636;52.704;6.536;2024-03-02T13:23:00;3.60;;;1.13;;
58338;SDS011;68636;52.704;6.536;2024-03-02T13:25:26;4.47;;;1.40;;
58338;SDS011;68636;52.704;6.536;2024-03-02T13:27:52;4.73;;;1.50;;
58338;SDS011;68636;52.704;6.536;2024-03-02T13:30:18;4.07;;;1.25;;
58338;SDS011;68636;52.704;6.536;2024-03-02T13:32:45;3.05;;;1.15;;
58338;SDS011;68636;52.704;6.536;2024-03-02T13:35:11;3.40;;;1.48;;
58338;SDS011;68636;52.704;6.536;2024-03-02T13:37:37;4.97;;;1.90;;
58338;SDS011;68636;52.704;6.536;2024-03-02T13:40:03;5.38;;;1.70;;
58338;SDS011;68636;52.704;6.536;2024-03-02T13:42:30;2.17;;;0.80;;
58338;SDS011;68636;52.704;6.536;2024-03-02T13:44:57;5.10;;;2.03;;
58338;SDS011;68636;52.704;6.536;2024-03-02T13:47:23;2.80;;;1.27;;
58338;SDS011;68636;52.704;6.536;2024-03-02T13:49:50;4.72;;;1.58;;
58338;SDS011;68636;52.704;6.536;2024-03-02T13:52:16;3.70;;;1.60;;
58338;SDS011;68636;52.704;6.536;2024-03-02T13:54:42;3.10;;;1.20;;
58338;SDS011;68636;52.704;6.536;2024-03-02T13:57:09;4.13;;;1.60;;
58338;SDS011;68636;52.704;6.536;2024-03-02T13:59:36;2.83;;;1.23;;
58338;SDS011;68636;52.704;6.536;2024-03-02T14:02:02;3.35;;;1.42;;
58338;SDS011;68636;52.704;6.536;2024-03-02T14:04:30;3.55;;;1.60;;
58338;SDS011;68636;52.704;6.536;2024-03-02T14:06:57;3.10;;;1.10;;
58338;SDS011;68636;52.704;6.536;2024-03-02T14:09:23;6.28;;;1.38;;
58338;SDS011;68636;52.704;6.536;2024-03-02T14:11:49;2.97;;;1.20;;
58338;SDS011;68636;52.704;6.536;2024-03-02T14:16:42;2.53;;;0.80;;
58338;SDS011;68636;52.704;6.536;2024-03-02T14:19:10;3.60;;;0.77;;
58338;SDS011;68636;52.704;6.536;2024-03-02T14:21:37;2.08;;;0.80;;
58338;SDS011;68636;52.704;6.536;2024-03-02T14:24:03;5.70;;;0.90;;
58338;SDS011;68636;52.704;6.536;2024-03-02T14:26:29;2.13;;;0.70;;
58338;SDS011;68636;52.704;6.536;2024-03-02T14:28:56;4.70;;;0.90;;
58338;SDS011;68636;52.704;6.536;2024-03-02T14:31:22;3.53;;;0.80;;
58338;SDS011;68636;52.704;6.536;2024-03-02T14:33:48;3.63;;;0.80;;
58338;SDS011;68636;52.704;6.536;2024-03-02T14:36:14;2.38;;;0.80;;
58338;SDS011;68636;52.704;6.536;2024-03-02T14:38:43;2.13;;;0.70;;
58338;SDS011;68636;52.704;6.536;2024-03-02T14:41:10;1.98;;;0.60;;
58338;SDS011;68636;52.704;6.536;2024-03-02T14:43:36;1.55;;;0.65;;
58338;SDS011;68636;52.704;6.536;2024-03-02T14:46:03;3.77;;;0.80;;
58338;SDS011;68636;52.704;6.536;2024-03-02T14:48:29;5.60;;;0.77;;
58338;SDS011;68636;52.704;6.536;2024-03-02T14:50:55;2.87;;;0.90;;
58338;SDS011;68636;52.704;6.536;2024-03-02T14:53:21;3.08;;;0.82;;
58338;SDS011;68636;52.704;6.536;2024-03-02T14:55:47;1.83;;;0.63;;
58338;SDS011;68636;52.704;6.536;2024-03-02T14:58:14;9.38;;;4.10;;
58338;SDS011;68636;52.704;6.536;2024-03-02T15:00:41;4.40;;;0.70;;
58338;SDS011;68636;52.704;6.536;2024-03-02T15:03:07;3.15;;;0.60;;